Latest Weather Observations for Wadeye (Port Keats)

IDD60801

Issued at 10:51 am CST Thursday 21 November 2019 (issued every 10 minutes, with the page automatically refreshed every 10 minutes)

About weather observations | Map of weather stations | Latest weather observations for NT | Other Formats
Station Details ID: 014948 Name: PORT KEATS AIRPORT Lat: -14.25 Lon: 129.53 Height: 28.0 m
Data from the previous 72 hours. | See also: Recent months at Wadeye (Port Keats)
Date/Time
CST
Temp
°C
App
Temp
°C
Dew
Point
°C
Rel
Hum
%
Delta-T
°C
Wind Press
QNH
hPa
Press
MSL
hPa
Rain since
9am
mm
Dir  Spd
km/h
Gust
km/h
Spd
kts
Gust
kts
21/10:30am 35.1 33.3 14.4 29 12.8 N 17 22 9 12 1010.5 1010.3 0.0
21/10:00am 34.1 33.6 18.6 40 10.1 N 19 26 10 14 1010.7 1010.5 0.0
21/09:30am 33.6 32.9 17.3 37 10.5 N 17 22 9 12 1010.7 1010.5 0.0
21/09:00am 32.2 33.5 20.8 51 7.6 N 15 20 8 11 1010.7 1010.5 0.0
21/08:30am 31.6 33.4 22.6 59 6.2 N 17 20 9 11 1010.7 1010.5 0.0
21/08:00am 30.3 33.2 23.2 65 4.9 N 13 17 7 9 1010.5 1010.3 0.0
21/07:30am 28.9 32.4 22.9 70 4.1 NNE 9 13 5 7 1010.3 1010.1 0.0
21/07:00am 27.4 31.3 22.6 75 3.3 ENE 6 7 3 4 1010.0 1009.8 0.0
21/06:30am 26.5 30.5 22.1 77 3.0 E 4 7 2 4 1009.5 1009.3 0.0
21/06:00am 26.9 30.6 22.5 77 3.0 NE 7 9 4 5 1009.2 1009.0 0.0
21/05:30am 27.2 32.1 22.4 75 3.2 CALM 0 4 0 2 1008.9 1008.7 0.0
21/05:00am 27.0 31.1 22.2 75 3.2 NE 4 6 2 3 1008.5 1008.3 0.0
21/04:30am 26.9 30.7 21.6 72 3.5 ENE 4 9 2 5 1008.3 1008.1 0.0
21/04:00am 27.7 32.1 21.3 68 4.3 CALM 0 0 0 0 1007.9 1007.7 0.0
21/03:30am 28.8 33.2 22.1 67 4.5 NNW 2 7 1 4 1007.7 1007.5 0.0
21/03:00am 28.4 31.4 21.2 65 4.8 WNW 7 9 4 5 1007.4 1007.2 0.0
21/02:30am 28.7 32.1 21.7 66 4.7 WNW 6 9 3 5 1007.5 1007.3 0.0
21/02:00am 29.0 32.0 22.0 66 4.7 W 9 15 5 8 1007.7 1007.5 0.0
21/01:30am 29.0 32.0 22.7 69 4.3 WNW 11 17 6 9 1008.0 1007.8 0.0
21/01:00am 29.1 32.1 22.6 68 4.4 WNW 11 19 6 10 1007.9 1007.7 0.0
21/12:30am 29.2 32.1 22.4 66 4.6 WNW 11 17 6 9 1008.2 1008.0 0.0
21/12:00am 29.3 32.3 22.0 64 4.9 WNW 9 13 5 7 1008.4 1008.2 0.0
 
Date/Time
CST
Temp
°C
App
Temp
°C
Dew
Point
°C
Rel
Hum
%
Delta-T
°C
Wind Press
QNH
hPa
Press
MSL
hPa
Rain since
9am
mm
Dir  Spd
km/h
Gust
km/h
Spd
kts
Gust
kts
20/11:30pm 29.3 32.3 22.0 64 4.9 WNW 9 13 5 7 1008.6 1008.4 0.0
20/11:00pm 29.5 33.2 22.5 66 4.8 WNW 7 11 4 6 1008.9 1008.7 0.0
20/10:30pm 29.8 33.0 22.3 64 5.1 NW 9 20 5 11 1008.7 1008.5 0.0
20/10:00pm 30.0 32.4 22.2 63 5.3 NNW 13 17 7 9 1008.7 1008.5 0.0
20/09:30pm 30.1 32.7 22.0 62 5.5 NNW 11 17 6 9 1008.2 1008.0 0.0
20/09:00pm 30.1 32.7 22.0 62 5.5 NW 11 17 6 9 1007.9 1007.7 0.0
20/08:30pm 30.3 32.1 21.9 60 5.7 NNW 15 20 8 11 1007.8 1007.6 0.0
20/08:00pm 30.4 32.4 22.3 62 5.5 N 15 20 8 11 1007.8 1007.6 0.0
20/07:30pm 30.8 31.9 21.3 57 6.4 N 17 24 9 13 1007.8 1007.6 0.0
20/07:00pm 31.5 31.6 19.2 48 8.0 N 17 26 9 14 1007.7 1007.5 0.0
20/06:30pm 32.1 32.0 17.9 42 9.2 NNW 15 24 8 13 1007.2 1007.0 0.0
20/06:00pm 32.8 33.1 19.7 46 8.7 NNW 17 22 9 12 1007.2 1007.0 0.0
20/05:30pm 33.9 33.9 18.0 39 10.3 NW 15 28 8 15 1007.2 1007.0 0.0
20/05:00pm 33.9 32.9 16.7 35 10.9 WNW 17 24 9 13 1006.9 1006.6 0.0
20/04:30pm 33.7 33.0 17.4 37 10.5 WNW 17 28 9 15 1006.7 1006.4 0.0
20/04:00pm 33.8 33.8 19.8 43 9.3 NW 19 26 10 14 1006.7 1006.4 0.0
20/03:30pm 34.1 32.8 18.2 39 10.4 NW 22 33 12 18 1006.7 1006.4 0.0
20/03:00pm 35.2 34.0 17.4 34 11.5 WNW 20 30 11 16 1007.2 1007.0 0.0
20/02:30pm 35.9 34.3 16.1 30 12.6 WNW 19 30 10 16 1007.3 1007.1 0.0
20/02:00pm 37.0 34.8 16.0 28 13.4 NW 22 35 12 19 1007.5 1007.3 0.0
20/01:30pm 36.4 34.2 13.2 25 14.2 W 17 24 9 13 1008.0 1007.8 0.0
20/01:00pm 36.6 34.6 12.8 24 14.5 W 15 28 8 15 1008.3 1008.1 0.0
20/12:30pm 37.0 34.7 11.8 22 15.1 W 15 28 8 15 1008.9 1008.7 0.0
20/12:00pm 36.3 34.0 11.9 23 14.6 W 15 24 8 13 1009.4 1009.2 0.0
20/11:30am 35.6 33.2 12.5 24 13.9 WSW 17 24 9 13 1009.6 1009.4 0.0
20/11:00am 35.3 34.1 15.1 30 12.6 WNW 15 24 8 13 1009.9 1009.7 0.0
20/10:30am 34.4 34.4 17.2 36 11.0 WNW 13 20 7 11 1010.1 1009.9 0.0
20/10:00am 33.5 33.3 16.8 36 10.6 WNW 13 20 7 11 1010.3 1010.1 0.0
20/09:30am 33.5 34.4 18.4 40 9.8 NW 11 20 6 11 1010.6 1010.4 0.0
20/09:00am 32.0 34.2 20.3 50 7.8 NNW 9 13 5 7 1010.4 1010.2 0.0
20/08:30am 31.1 34.1 21.3 56 6.6 NW 7 13 4 7 1010.3 1010.1 0.0
20/08:00am 30.3 33.8 21.9 60 5.7 N 6 9 3 5 1010.1 1009.9 0.0
20/07:30am 29.1 34.2 22.6 68 4.4 CALM 0 0 0 0 1009.7 1009.5 0.0
20/07:00am 28.2 33.9 23.8 77 3.0 CALM 0 0 0 0 1009.6 1009.4 0.0
20/06:30am 26.9 31.8 23.6 82 2.3 E 4 7 2 4 1009.4 1009.2 0.0
20/06:00am 26.9 32.3 23.2 80 2.5 CALM 0 0 0 0 1009.2 1009.0 0.0
20/05:30am 27.3 32.7 23.3 79 2.7 CALM 0 0 0 0 1008.9 1008.7 0.0
20/05:00am 27.7 33.1 23.3 77 3.0 CALM 0 0 0 0 1008.5 1008.3 0.0
20/04:30am 27.9 32.7 23.5 77 3.0 WSW 4 6 2 3 1008.1 1007.9 0.0
20/04:00am 28.2 32.7 23.6 76 3.2 WNW 6 9 3 5 1008.0 1007.8 0.0
20/03:30am 28.5 32.8 23.6 75 3.4 WNW 7 11 4 6 1008.0 1007.8 0.0
20/03:00am 28.6 32.9 23.7 75 3.4 WNW 7 11 4 6 1007.9 1007.7 0.0
20/02:30am 28.8 33.0 24.1 76 3.3 WNW 9 15 5 8 1008.1 1007.9 0.0
20/02:00am 29.0 32.8 24.1 75 3.4 NW 11 17 6 9 1008.1 1007.9 0.0
20/01:30am 28.9 32.3 24.0 75 3.4 NW 13 20 7 11 1008.3 1008.1 0.0
20/01:00am 28.9 32.4 24.2 76 3.3 WNW 13 19 7 10 1008.3 1008.1 0.0
20/12:30am 28.9 32.8 24.2 76 3.3 NW 11 20 6 11 1008.7 1008.5 0.0
20/12:00am 29.1 32.6 24.2 75 3.4 NW 13 20 7 11 1008.8 1008.6 0.0
 
Date/Time
CST
Temp
°C
App
Temp
°C
Dew
Point
°C
Rel
Hum
%
Delta-T
°C
Wind Press
QNH
hPa
Press
MSL
hPa
Rain since
9am
mm
Dir  Spd
km/h
Gust
km/h
Spd
kts
Gust
kts
19/11:30pm 28.9 32.6 23.3 72 3.8 WNW 9 17 5 9 1008.7 1008.5 0.0
19/11:00pm 28.9 32.6 23.3 72 3.8 WNW 9 15 5 8 1008.9 1008.7 0.0
19/10:30pm 29.0 32.8 23.4 72 3.9 NW 9 13 5 7 1009.0 1008.8 0.0
19/10:00pm 29.2 32.7 23.6 72 3.9 NNW 11 15 6 8 1008.9 1008.7 0.0
19/09:30pm 29.4 32.5 23.6 71 4.0 NNW 13 17 7 9 1008.9 1008.7 0.0
19/09:00pm 29.3 32.0 23.5 71 4.0 N 15 19 8 10 1008.9 1008.7 0.0
19/08:30pm 30.3 32.4 21.7 60 5.8 NNW 13 19 7 10 1008.9 1008.7 0.0
19/08:00pm 30.6 31.8 21.4 58 6.2 N 17 22 9 12 1008.9 1008.7 0.0
19/07:30pm 31.0 32.1 21.2 56 6.6 N 17 20 9 11 1008.6 1008.4 0.0
19/07:00pm 31.0 33.1 20.9 55 6.7 NNW 11 17 6 9 1008.4 1008.2 0.0
19/06:30pm 31.5 32.8 20.8 53 7.2 NW 15 19 8 10 1007.9 1007.7 0.0
19/06:00pm 33.1 33.3 18.5 42 9.5 NNW 15 19 8 10 1007.6 1007.4 0.0
19/05:30pm 34.0 33.5 15.9 33 11.4 WNW 13 20 7 11 1007.2 1007.0 0.0
19/05:00pm 34.7 33.7 14.6 30 12.4 W 13 20 7 11 1007.4 1007.2 0.0
19/04:30pm 35.0 33.3 14.8 29 12.6 NW 17 24 9 13 1007.2 1007.0 0.0
19/04:00pm 35.6 35.3 16.4 32 12.2 NW 13 24 7 13 1007.4 1007.2 0.0
19/03:30pm 34.2 33.0 16.1 34 11.4 WNW 17 24 9 13 1007.6 1007.4 0.0
19/03:00pm 35.0 33.5 16.3 32 11.9 NW 19 26 10 14 1007.6 1007.4 0.0
19/02:30pm 35.4 34.1 16.7 33 12.0 NW 19 28 10 15 1007.9 1007.7 0.0
19/02:00pm 35.8 34.4 17.0 32 12.1 NW 20 35 11 19 1007.8 1007.6 0.0
19/01:30pm 34.9 33.9 17.6 35 11.2 NW 19 28 10 15 1008.6 1008.4 0.0
19/01:00pm 34.7 34.4 18.3 38 10.7 NW 17 24 9 13 1009.2 1009.0 0.0
19/12:30pm 34.6 35.0 19.8 41 9.9 NW 17 26 9 14 1009.7 1009.5 0.0
19/12:00pm 33.6 34.7 20.4 46 8.8 NW 15 26 8 14 1010.2 1010.0 0.0
19/11:30am 33.7 36.1 21.5 49 8.3 W 11 20 6 11 1010.5 1010.3 0.0
19/11:00am 33.1 35.6 22.5 53 7.3 W 13 20 7 11 1010.8 1010.6 0.0
19/10:30am 32.3 35.4 22.1 55 7.0 WNW 9 17 5 9 1011.0 1010.8 0.0
19/10:00am 32.2 35.0 22.3 56 6.8 W 11 19 6 10 1011.3 1011.1 0.0
19/09:30am 31.8 35.1 22.5 58 6.4 WNW 9 15 5 8 1011.4 1011.2 0.0
19/09:00am 30.4 33.4 22.6 63 5.3 WNW 11 17 6 9 1011.4 1011.2 0.0
19/08:30am 30.2 34.1 23.6 67 4.6 W 9 13 5 7 1011.0 1010.8 0.0
19/08:00am 29.1 33.9 22.8 69 4.3 SSE 2 6 1 3 1011.3 1011.1 0.0
19/07:30am 27.5 32.6 22.7 75 3.3 CALM 0 0 0 0 1011.1 1010.9 0.0
19/07:00am 26.4 30.3 22.5 79 2.6 SE 6 7 3 4 1010.9 1010.7 0.0
19/06:30am 25.3 30.0 22.0 82 2.2 CALM 0 0 0 0 1010.5 1010.3 0.0
19/06:00am 25.5 29.4 21.8 80 2.5 ESE 4 6 2 3 1010.2 1010.0 0.0
19/05:30am 25.7 29.3 22.0 80 2.5 E 6 7 3 4 1009.8 1009.6 0.0
19/05:00am 25.9 28.6 22.2 80 2.5 ENE 11 13 6 7 1009.4 1009.2 0.0
19/04:30am 26.2 29.9 22.5 80 2.5 ESE 7 9 4 5 1009.2 1009.0 0.0
19/04:00am 26.4 31.6 22.9 81 2.4 CALM 0 4 0 2 1008.9 1008.7 0.0
19/03:30am 26.6 31.7 23.3 82 2.3 E 2 7 1 4 1008.6 1008.4 0.0
19/03:00am 26.3 31.6 23.0 82 2.2 CALM 0 0 0 0 1008.1 1007.9 0.0
19/02:30am 26.6 31.9 23.1 81 2.4 CALM 0 0 0 0 1008.2 1008.0 0.0
19/02:00am 27.2 32.6 23.2 79 2.7 CALM 0 0 0 0 1008.2 1008.0 0.0
19/01:30am 27.9 32.6 23.3 76 3.2 NNE 4 7 2 4 1008.5 1008.3 0.0
19/01:00am 28.4 34.0 24.2 78 2.9 NNW 2 7 1 4 1008.8 1008.6 0.0
19/12:30am 28.3 32.8 23.9 77 3.0 NW 7 11 4 6 1009.0 1008.8 0.0
19/12:00am 28.1 32.8 23.9 78 2.9 WNW 6 7 3 4 1009.2 1009.0 0.0
 
Date/Time
CST
Temp
°C
App
Temp
°C
Dew
Point
°C
Rel
Hum
%
Delta-T
°C
Wind Press
QNH
hPa
Press
MSL
hPa
Rain since
9am
mm
Dir  Spd
km/h
Gust
km/h
Spd
kts
Gust
kts
18/11:30pm 28.3 32.6 23.7 76 3.2 WNW 7 11 4 6 1009.3 1009.1 0.0
18/11:00pm 28.9 32.9 23.8 74 3.5 NNW 9 13 5 7 1009.4 1009.2 0.0
18/10:30pm 28.7 32.2 22.2 68 4.4 N 7 11 4 6 1009.7 1009.5 0.0
18/10:00pm 28.4 33.2 22.9 72 3.8 WNW 2 7 1 4 1009.4 1009.2 0.0
18/09:30pm 28.6 32.3 22.3 68 4.3 WNW 6 7 3 4 1009.4 1009.2 0.0
18/09:00pm 28.8 32.1 20.8 62 5.3 WSW 4 7 2 4 1009.3 1009.1 0.0
18/08:30pm 28.8 31.0 20.3 60 5.6 WSW 9 11 5 6 1009.1 1008.9 0.0
18/08:00pm 29.0 31.1 19.3 55 6.3 W 7 9 4 5 1009.0 1008.8 0.0
18/07:30pm 29.1 31.0 19.7 57 6.2 NW 9 13 5 7 1008.9 1008.7 0.0
18/07:00pm 28.5 28.4 20.8 63 5.1 N 22 33 12 18 1009.4 1009.2 0.0
18/06:30pm 31.2 30.7 20.8 54 7.0 N 24 30 13 16 1009.3 1009.1 0.0
18/06:00pm 32.2 32.5 18.0 42 9.2 NW 13 22 7 12 1008.9 1008.7 0.0
18/05:30pm 31.9 32.6 17.0 41 9.5 W 9 15 5 8 1008.8 1008.6 0.0
18/05:00pm 32.2 32.5 16.9 40 9.7 SW 11 20 6 11 1008.6 1008.4 0.0
18/04:30pm 30.7 29.5 17.0 43 8.7 SSE 19 28 10 15 1008.9 1008.7 0.0
18/04:15pm 30.2 26.9 16.9 44 8.4 SE 30 48 16 26 1009.4 1009.2 0.0
18/04:03pm 32.5 32.9 19.0 44 8.8 SSE 15 37 8 20 1009.4 1009.2 0.0
18/04:00pm 33.2 35.5 21.4 50 8.0 WSW 11 19 6 10 1009.2 1009.0 0.0
18/03:30pm 32.7 34.1 21.9 53 7.4 WNW 17 28 9 15 1008.4 1008.2 0.0
18/03:00pm 34.3 35.6 22.4 50 8.2 WNW 19 33 10 18 1008.2 1008.0 0.0
18/02:30pm 34.1 36.0 22.8 51 7.8 WNW 17 26 9 14 1009.1 1008.9 0.0
18/02:00pm 33.5 35.0 22.0 51 7.8 NW 17 26 9 14 1009.4 1009.2 0.0
18/01:30pm 33.6 33.9 20.7 46 8.7 NW 20 28 11 15 1009.9 1009.7 0.0
18/01:00pm 33.7 34.6 21.5 49 8.3 NW 19 30 10 16 1010.4 1010.2 0.0
18/12:30pm 34.4 35.6 21.4 46 8.8 NNW 17 26 9 14 1011.1 1010.9 0.0
18/12:00pm 34.4 36.2 21.1 45 9.0 N 13 22 7 12 1011.4 1011.2 0.0
18/11:30am 33.7 36.1 21.5 49 8.3 NW 11 20 6 11 1011.6 1011.4 0.0
18/11:00am 32.6 34.8 21.8 53 7.3 WNW 13 19 7 10 1012.0 1011.8 0.0

Other formats

Comma delimited format used in spreadsheet applications
http://www.bom.gov.au/fwo/IDD60801/IDD60801.95111.axf

JavaScript Object Notation format (JSON) in row-major order
http://www.bom.gov.au/fwo/IDD60801/IDD60801.95111.json

Data quality

Most of these data are generated automatically and are frequently updated. Quality checks on data are not normally performed. It is possible for incorrect values to appear. Refer to information at About Latest Weather Observations and please check the disclaimer before using these data.